createdAt,value
2019-02-15T00:00:40.129Z,63.00
2019-02-15T00:03:09.498Z,62.70
2019-02-15T00:05:38.925Z,62.60
2019-02-15T00:08:08.374Z,62.70
2019-02-15T00:10:37.789Z,62.70
2019-02-15T00:13:13.324Z,62.60
2019-02-15T00:15:38.354Z,62.60
2019-02-15T00:18:26.691Z,62.60
2019-02-15T00:21:14.980Z,62.50
2019-02-15T00:23:45.603Z,62.40
2019-02-15T00:26:16.516Z,62.30
2019-02-15T00:28:46.103Z,62.30
2019-02-15T00:31:18.685Z,62.30
2019-02-15T00:33:48.143Z,62.40
2019-02-15T00:36:17.616Z,62.50
2019-02-15T00:38:47.059Z,62.50
2019-02-15T00:41:16.429Z,62.50
2019-02-15T00:43:45.895Z,62.60
2019-02-15T00:46:49.354Z,62.60
2019-02-15T00:49:34.439Z,62.70
2019-02-15T00:52:11.474Z,62.60
2019-02-15T00:54:48.868Z,62.60
2019-02-15T00:57:26.788Z,62.60
2019-02-15T01:00:21.272Z,62.50
2019-02-15T01:03:01.836Z,62.50
2019-02-15T01:05:52.892Z,62.60
2019-02-15T01:08:33.449Z,62.70
2019-02-15T01:11:21.825Z,62.70
2019-02-15T01:13:51.283Z,62.70
2019-02-15T01:16:20.704Z,62.70
2019-02-15T01:18:50.073Z,62.80
2019-02-15T01:21:19.464Z,62.70
2019-02-15T01:23:48.829Z,62.70
2019-02-15T01:26:40.499Z,62.70
2019-02-15T01:29:27.404Z,62.60
2019-02-15T01:32:34.032Z,62.60
2019-02-15T01:35:15.226Z,62.60
2019-02-15T01:38:06.385Z,62.50
2019-02-15T01:40:50.184Z,62.70
2019-02-15T01:43:39.812Z,62.90
2019-02-15T01:46:11.016Z,62.80
2019-02-15T01:48:40.502Z,62.70
2019-02-15T01:51:09.960Z,62.60
2019-02-15T01:53:39.409Z,62.90
2019-02-15T01:56:08.920Z,62.90
2019-02-15T01:58:38.412Z,62.90
2019-02-15T02:01:07.946Z,63.00
2019-02-15T02:03:37.379Z,63.10
2019-02-15T02:06:06.847Z,63.10
2019-02-15T02:08:36.273Z,63.20
2019-02-15T02:11:05.638Z,63.30
2019-02-15T02:13:35.156Z,63.00
2019-02-15T02:16:04.567Z,62.90
2019-02-15T02:18:33.955Z,62.90
2019-02-15T02:21:03.414Z,62.80
2019-02-15T02:23:32.937Z,62.70
2019-02-15T02:26:03.631Z,62.60
2019-02-15T02:28:32.993Z,62.60
2019-02-15T02:31:02.415Z,62.40
2019-02-15T02:33:31.864Z,62.20
2019-02-15T02:36:01.318Z,62.20
2019-02-15T02:38:30.731Z,62.10
2019-02-15T02:41:00.093Z,62.20
2019-02-15T02:43:29.591Z,62.20
2019-02-15T02:45:59.045Z,62.40
2019-02-15T02:48:28.482Z,62.80
2019-02-15T02:50:57.880Z,62.80
2019-02-15T02:53:27.298Z,62.80
2019-02-15T02:55:56.739Z,62.90
2019-02-15T02:58:26.158Z,62.90
2019-02-15T03:00:55.518Z,63.10
2019-02-15T03:03:24.966Z,63.30
2019-02-15T03:05:54.653Z,63.40
2019-02-15T03:08:24.026Z,63.40
2019-02-15T03:10:53.390Z,63.70
2019-02-15T03:13:22.845Z,64.20
2019-02-15T03:15:52.410Z,64.30
2019-02-15T03:18:21.789Z,64.10
2019-02-15T03:20:51.231Z,64.20
2019-02-15T03:23:20.691Z,64.30
2019-02-15T03:25:50.149Z,64.30
2019-02-15T03:28:19.627Z,64.30
2019-02-15T03:30:49.104Z,64.40
2019-02-15T03:33:18.616Z,64.30
2019-02-15T03:36:00.331Z,65.30
2019-02-15T03:38:51.600Z,64.60
2019-02-15T03:41:31.886Z,64.60
2019-02-15T03:44:01.289Z,64.60
2019-02-15T03:46:30.733Z,64.30
2019-02-15T03:49:00.269Z,64.20
2019-02-15T03:51:29.670Z,64.10
2019-02-15T03:53:59.197Z,63.90
2019-02-15T03:56:28.603Z,63.80
2019-02-15T03:58:58.047Z,63.70
2019-02-15T04:01:27.502Z,63.40
2019-02-15T04:03:57.006Z,63.10
2019-02-15T04:06:26.443Z,62.90
2019-02-15T04:08:55.886Z,62.80
2019-02-15T04:11:25.336Z,62.60
2019-02-15T04:13:54.765Z,62.50
2019-02-15T04:16:24.142Z,62.50
2019-02-15T04:18:53.615Z,62.50
2019-02-15T04:21:22.950Z,62.60
2019-02-15T04:23:52.274Z,62.60
2019-02-15T04:26:21.683Z,62.50
2019-02-15T04:28:51.062Z,62.40
2019-02-15T04:31:20.404Z,62.50
2019-02-15T04:33:49.873Z,62.40
2019-02-15T04:36:19.265Z,62.20
2019-02-15T04:38:48.656Z,62.10
2019-02-15T04:41:18.040Z,62.10
2019-02-15T04:43:47.418Z,62.00
2019-02-15T04:46:16.828Z,62.00
2019-02-15T04:48:46.305Z,62.00
2019-02-15T04:51:15.764Z,62.10
2019-02-15T04:53:45.175Z,62.20
2019-02-15T04:56:14.632Z,62.20
2019-02-15T04:58:44.050Z,62.10
2019-02-15T05:01:13.359Z,62.00
2019-02-15T05:03:42.823Z,61.80
2019-02-15T05:06:12.273Z,62.00
2019-02-15T05:08:41.723Z,61.60
2019-02-15T05:11:11.118Z,61.60
2019-02-15T05:13:40.623Z,61.60
2019-02-15T05:16:10.087Z,61.60
2019-02-15T05:18:39.527Z,61.60
2019-02-15T05:21:08.999Z,62.20
2019-02-15T05:23:38.467Z,61.50
2019-02-15T05:26:07.935Z,61.70
2019-02-15T05:28:37.423Z,61.90
2019-02-15T05:31:06.863Z,61.80
2019-02-15T05:33:36.227Z,62.00
2019-02-15T05:36:06.696Z,62.40
2019-02-15T05:38:36.147Z,62.40
2019-02-15T05:41:05.679Z,62.20
2019-02-15T05:43:35.077Z,62.40
2019-02-15T05:46:04.775Z,62.30
2019-02-15T05:48:34.171Z,62.20
2019-02-15T05:51:03.548Z,62.00
2019-02-15T05:53:32.984Z,61.80
2019-02-15T05:56:02.388Z,61.80
2019-02-15T05:58:31.743Z,61.60
2019-02-15T06:01:01.215Z,61.70
2019-02-15T06:03:30.581Z,61.60
2019-02-15T06:05:59.964Z,61.50
2019-02-15T06:08:31.285Z,61.60
2019-02-15T06:11:07.508Z,61.60
2019-02-15T06:13:31.672Z,61.50
2019-02-15T06:16:01.102Z,61.50
2019-02-15T06:18:30.540Z,61.40
2019-02-15T06:20:59.960Z,61.40
2019-02-15T06:23:29.359Z,61.40
2019-02-15T06:25:58.808Z,61.30
2019-02-15T06:28:28.288Z,61.10
2019-02-15T06:30:57.735Z,61.20
2019-02-15T06:33:27.196Z,61.20
2019-02-15T06:35:56.572Z,61.20
2019-02-15T06:38:34.622Z,61.00
2019-02-15T06:40:57.105Z,60.80
2019-02-15T06:43:26.590Z,60.70
2019-02-15T06:45:56.026Z,60.70
2019-02-15T06:48:25.484Z,60.80
2019-02-15T06:50:54.934Z,60.70
2019-02-15T06:53:24.586Z,60.70
2019-02-15T06:55:54.019Z,60.80
2019-02-15T06:58:23.411Z,60.60
2019-02-15T07:01:17.637Z,60.60
2019-02-15T07:04:08.876Z,60.60
2019-02-15T07:06:38.341Z,60.60
2019-02-15T07:09:07.869Z,60.60
2019-02-15T07:11:37.260Z,60.60
2019-02-15T07:14:06.707Z,60.60
2019-02-15T07:16:36.165Z,60.60
2019-02-15T07:19:05.506Z,60.60
2019-02-15T07:21:34.866Z,60.70
2019-02-15T07:24:04.336Z,60.70
2019-02-15T07:26:33.677Z,60.80
2019-02-15T07:29:03.075Z,60.90
2019-02-15T07:31:32.608Z,61.00
2019-02-15T07:34:02.004Z,61.00
2019-02-15T07:36:31.375Z,61.00
2019-02-15T07:39:00.844Z,61.20
2019-02-15T07:41:30.291Z,61.30
2019-02-15T07:43:59.746Z,61.20
2019-02-15T07:46:29.120Z,61.90
2019-02-15T07:48:58.525Z,61.00
2019-02-15T07:51:27.953Z,61.10
2019-02-15T07:53:57.347Z,61.20
2019-02-15T07:56:26.736Z,61.50
2019-02-15T07:58:56.137Z,61.60
2019-02-15T08:01:25.578Z,61.80
2019-02-15T08:03:55.015Z,62.30
2019-02-15T08:06:24.369Z,62.30
2019-02-15T08:08:53.720Z,62.50
2019-02-15T08:11:23.119Z,62.40
2019-02-15T08:13:52.617Z,62.30
2019-02-15T08:16:21.993Z,63.10
2019-02-15T08:18:51.416Z,62.30
2019-02-15T08:21:20.890Z,62.10
2019-02-15T08:23:50.287Z,62.00
2019-02-15T08:26:19.635Z,62.00
2019-02-15T08:28:48.998Z,62.10
2019-02-15T08:31:18.475Z,62.00
2019-02-15T08:33:48.076Z,61.90
2019-02-15T08:36:17.499Z,61.80
2019-02-15T08:38:46.916Z,61.60
2019-02-15T08:41:16.404Z,61.50
2019-02-15T08:43:45.845Z,60.60
2019-02-15T08:46:15.187Z,59.90
2019-02-15T08:48:46.415Z,60.90
2019-02-15T08:51:15.744Z,61.20
2019-02-15T08:53:45.155Z,61.10
2019-02-15T08:56:14.566Z,61.20
2019-02-15T08:58:43.989Z,61.00
2019-02-15T09:01:13.362Z,60.50
2019-02-15T09:03:42.833Z,59.90
2019-02-15T09:06:12.155Z,60.30
2019-02-15T09:08:41.528Z,61.10
2019-02-15T09:11:11.026Z,60.90
2019-02-15T09:13:40.493Z,61.40
2019-02-15T09:16:10.690Z,61.60
2019-02-15T09:18:40.427Z,61.40
2019-02-15T09:21:09.807Z,62.20
2019-02-15T09:23:39.234Z,64.00
2019-02-15T09:26:17.785Z,64.00
2019-02-15T09:28:58.780Z,63.70
2019-02-15T09:31:28.164Z,63.10
2019-02-15T09:33:58.631Z,61.50
2019-02-15T09:36:28.139Z,61.10
2019-02-15T09:38:57.641Z,60.90
2019-02-15T09:41:27.094Z,61.30
2019-02-15T09:43:56.558Z,61.70
2019-02-15T09:46:25.969Z,61.80
2019-02-15T09:48:55.402Z,61.80
2019-02-15T09:51:24.876Z,61.90
2019-02-15T09:53:54.259Z,62.40
2019-02-15T09:56:23.703Z,62.00
2019-02-15T09:58:53.144Z,61.70
2019-02-15T10:01:22.610Z,61.40
2019-02-15T10:03:52.056Z,61.00
2019-02-15T10:06:21.480Z,60.80
2019-02-15T10:08:50.905Z,60.30
2019-02-15T10:11:21.375Z,62.10
2019-02-15T10:13:50.882Z,66.00
2019-02-15T10:16:28.266Z,67.80
2019-02-15T10:18:51.338Z,68.20
2019-02-15T10:21:20.836Z,68.40
2019-02-15T10:23:50.274Z,68.50
2019-02-15T10:26:19.740Z,68.20
2019-02-15T10:28:49.250Z,68.30
2019-02-15T10:31:18.992Z,68.00
2019-02-15T10:33:48.360Z,68.00
2019-02-15T10:36:18.991Z,65.40
2019-02-15T10:38:48.707Z,65.80
2019-02-15T10:41:18.152Z,65.00
2019-02-15T10:43:47.583Z,64.70
2019-02-15T10:46:17.047Z,63.40
2019-02-15T10:48:46.400Z,62.70
2019-02-15T10:51:15.772Z,63.00
2019-02-15T10:53:45.254Z,63.30
2019-02-15T10:56:14.599Z,63.20
2019-02-15T10:58:44.001Z,64.40
2019-02-15T11:01:13.454Z,64.30
2019-02-15T11:03:42.817Z,64.60
2019-02-15T11:06:12.559Z,63.70
2019-02-15T11:08:42.034Z,63.80
2019-02-15T11:11:11.526Z,63.70
2019-02-15T11:13:40.995Z,63.40
2019-02-15T11:16:10.498Z,63.40
2019-02-15T11:18:39.982Z,63.80
2019-02-15T11:21:09.391Z,63.70
2019-02-15T11:23:38.808Z,64.10
2019-02-15T11:26:08.254Z,64.30
2019-02-15T11:28:37.685Z,64.60
2019-02-15T11:31:07.116Z,65.20
2019-02-15T11:33:36.471Z,64.80
2019-02-15T11:36:05.826Z,64.30
2019-02-15T11:38:35.427Z,64.50
2019-02-15T11:41:10.906Z,65.00
2019-02-15T11:43:36.056Z,63.40
2019-02-15T11:46:05.510Z,63.40
2019-02-15T11:48:34.923Z,63.80
2019-02-15T11:51:04.988Z,62.90
2019-02-15T11:53:34.415Z,62.70
2019-02-15T11:56:03.821Z,62.40
2019-02-15T11:58:33.274Z,62.80
2019-02-15T12:01:03.680Z,62.50
2019-02-15T12:03:33.128Z,61.80
2019-02-15T12:06:03.863Z,61.90
2019-02-15T12:08:33.683Z,62.20
2019-02-15T12:11:03.684Z,61.40
2019-02-15T12:13:33.532Z,61.10
2019-02-15T12:16:02.953Z,61.60
2019-02-15T12:18:32.432Z,61.90
2019-02-15T12:21:01.828Z,61.00
2019-02-15T12:23:31.259Z,60.50
2019-02-15T12:26:00.744Z,59.50
2019-02-15T12:28:30.748Z,59.60
2019-02-15T12:31:00.449Z,59.90
2019-02-15T12:33:29.843Z,59.70
2019-02-15T12:35:59.226Z,60.80
2019-02-15T12:38:28.551Z,61.70
2019-02-15T12:40:57.987Z,60.90
2019-02-15T12:43:27.451Z,60.90
2019-02-15T12:45:57.002Z,60.90
2019-02-15T12:48:26.410Z,60.70
2019-02-15T12:50:55.964Z,60.50
2019-02-15T12:53:25.544Z,59.90
2019-02-15T12:55:55.067Z,60.00
2019-02-15T12:58:24.554Z,60.20
2019-02-15T13:00:54.011Z,60.50
2019-02-15T13:03:23.441Z,59.00
2019-02-15T13:05:52.931Z,58.10
2019-02-15T13:08:22.326Z,57.90
2019-02-15T13:10:51.732Z,57.40
2019-02-15T13:13:21.230Z,57.20
2019-02-15T13:15:50.683Z,57.30
2019-02-15T13:18:20.153Z,57.70
2019-02-15T13:20:49.533Z,58.00
2019-02-15T13:23:19.116Z,58.30
2019-02-15T13:25:48.600Z,58.20
2019-02-15T13:28:18.031Z,57.80
2019-02-15T13:30:47.542Z,57.00
2019-02-15T13:33:16.925Z,57.40
2019-02-15T13:35:46.375Z,57.00
2019-02-15T13:38:15.864Z,56.30
2019-02-15T13:40:45.208Z,56.30
2019-02-15T13:43:14.692Z,56.40
2019-02-15T13:45:44.173Z,56.20
2019-02-15T13:48:13.678Z,56.30
2019-02-15T13:50:43.187Z,56.40
2019-02-15T13:53:12.633Z,55.50
2019-02-15T13:55:42.023Z,54.90
2019-02-15T13:58:11.503Z,54.30
2019-02-15T14:00:40.949Z,55.10
2019-02-15T14:03:10.327Z,54.30
2019-02-15T14:05:39.977Z,53.90
2019-02-15T14:08:09.328Z,53.70
2019-02-15T14:10:38.748Z,53.80
2019-02-15T14:13:08.204Z,54.10
2019-02-15T14:15:37.809Z,54.50
2019-02-15T14:18:07.272Z,54.30
2019-02-15T14:20:36.735Z,54.30
2019-02-15T14:23:06.115Z,54.20
2019-02-15T14:25:35.559Z,54.20
2019-02-15T14:28:05.119Z,54.80
2019-02-15T14:30:34.581Z,55.10
2019-02-15T14:33:04.029Z,55.50
2019-02-15T14:35:33.563Z,55.40
2019-02-15T14:38:03.063Z,55.20
2019-02-15T14:40:32.518Z,54.00
2019-02-15T14:43:01.883Z,53.40
2019-02-15T14:45:31.296Z,54.50
2019-02-15T14:48:00.673Z,54.70
2019-02-15T14:50:30.102Z,55.00
2019-02-15T14:52:59.652Z,54.90
2019-02-15T14:55:29.054Z,54.30
2019-02-15T14:57:58.429Z,53.30
2019-02-15T15:00:27.914Z,52.60
2019-02-15T15:02:57.283Z,53.00
2019-02-15T15:05:26.713Z,52.80
2019-02-15T15:07:56.142Z,53.00
2019-02-15T15:10:25.651Z,53.40
2019-02-15T15:12:55.006Z,54.40
2019-02-15T15:15:24.475Z,54.60
2019-02-15T15:18:02.352Z,54.60
2019-02-15T15:20:24.920Z,54.30
2019-02-15T15:22:54.339Z,54.10
2019-02-15T15:25:23.779Z,54.20
2019-02-15T15:27:53.292Z,54.00
2019-02-15T15:30:22.771Z,54.20
2019-02-15T15:32:52.268Z,53.70
2019-02-15T15:35:21.753Z,53.10
2019-02-15T15:37:51.145Z,53.40
2019-02-15T15:40:20.561Z,53.00
2019-02-15T15:42:50.068Z,53.20
2019-02-15T15:45:19.444Z,52.90
2019-02-15T15:47:48.880Z,52.20
2019-02-15T15:50:18.309Z,51.80
2019-02-15T15:52:47.690Z,52.00
2019-02-15T15:55:17.830Z,52.40
2019-02-15T15:57:47.761Z,52.60
2019-02-15T16:00:18.313Z,52.80
2019-02-15T16:02:47.681Z,53.00
2019-02-15T16:05:17.184Z,53.30
2019-02-15T16:07:46.654Z,53.50
2019-02-15T16:10:16.106Z,53.90
2019-02-15T16:12:45.507Z,54.10
2019-02-15T16:15:14.935Z,54.20
2019-02-15T16:17:44.352Z,54.40
2019-02-15T16:20:13.709Z,54.90
2019-02-15T16:22:43.125Z,55.20
2019-02-15T16:25:12.493Z,55.50
2019-02-15T16:27:43.510Z,55.70
2019-02-15T16:30:13.364Z,56.00
2019-02-15T16:32:44.699Z,56.50
2019-02-15T16:35:14.120Z,57.10
2019-02-15T16:37:43.490Z,57.40
2019-02-15T16:40:13.568Z,57.60
2019-02-15T16:42:43.064Z,57.80
2019-02-15T16:45:13.765Z,58.00
2019-02-15T16:47:43.396Z,57.90
2019-02-15T16:50:13.320Z,58.10
2019-02-15T16:52:42.780Z,58.20
2019-02-15T16:55:13.379Z,58.40
2019-02-15T16:57:43.316Z,58.60
2019-02-15T17:00:12.913Z,58.60
2019-02-15T17:02:42.343Z,58.60
2019-02-15T17:05:12.368Z,58.60
2019-02-15T17:07:41.835Z,59.60
2019-02-15T17:10:11.339Z,59.90
2019-02-15T17:12:40.855Z,60.00
2019-02-15T17:15:10.981Z,60.00
2019-02-15T17:17:40.483Z,60.30
2019-02-15T17:20:10.082Z,60.80
2019-02-15T17:22:42.317Z,60.90
2019-02-15T17:25:12.270Z,61.10
2019-02-15T17:27:42.065Z,61.30
2019-02-15T17:30:12.248Z,61.80
2019-02-15T17:32:42.433Z,63.10
2019-02-15T17:35:12.648Z,62.70
2019-02-15T17:37:42.878Z,63.30
2019-02-15T17:40:13.094Z,63.70
2019-02-15T17:42:43.265Z,63.90
2019-02-15T17:45:17.540Z,63.70
2019-02-15T17:47:47.742Z,63.40
2019-02-15T17:50:18.417Z,63.40
2019-02-15T17:52:48.480Z,63.40
2019-02-15T17:55:18.732Z,63.40
2019-02-15T17:57:49.051Z,63.60
2019-02-15T18:00:21.457Z,64.00
2019-02-15T18:02:51.654Z,64.20
2019-02-15T18:05:21.846Z,64.20
2019-02-15T18:07:52.063Z,64.50
2019-02-15T18:10:22.261Z,64.80
2019-02-15T18:12:52.416Z,64.70
2019-02-15T18:15:22.887Z,64.70
2019-02-15T18:17:53.066Z,64.60
2019-02-15T18:20:23.228Z,64.80
2019-02-15T18:22:53.498Z,64.70
2019-02-15T18:25:23.833Z,64.70
2019-02-15T18:27:53.853Z,64.60
2019-02-15T18:30:23.920Z,64.80
2019-02-15T18:32:53.992Z,64.90
2019-02-15T18:35:24.078Z,64.60
2019-02-15T18:37:54.317Z,64.70
2019-02-15T18:40:24.299Z,64.80
2019-02-15T18:42:54.576Z,64.80
2019-02-15T18:45:24.799Z,64.80
2019-02-15T18:47:56.188Z,64.90
2019-02-15T18:50:26.378Z,65.00
2019-02-15T18:52:56.526Z,64.80
2019-02-15T18:55:26.656Z,65.00
2019-02-15T18:57:56.932Z,65.00
2019-02-15T19:00:27.142Z,65.00
2019-02-15T19:02:57.271Z,65.20
2019-02-15T19:05:27.460Z,65.10
2019-02-15T19:07:57.750Z,65.10
2019-02-15T19:10:27.875Z,66.00
2019-02-15T19:12:58.144Z,65.30
2019-02-15T19:15:28.396Z,65.40
2019-02-15T19:17:58.646Z,65.50
2019-02-15T19:20:28.873Z,65.40
2019-02-15T19:22:59.152Z,65.40
2019-02-15T19:25:29.428Z,65.50
2019-02-15T19:28:00.021Z,65.60
2019-02-15T19:30:31.942Z,65.60
2019-02-15T19:33:02.140Z,65.70
2019-02-15T19:35:32.250Z,65.80
2019-02-15T19:38:02.451Z,65.70
2019-02-15T19:40:32.645Z,65.80
2019-02-15T19:43:03.444Z,67.00
2019-02-15T19:45:33.853Z,66.30
2019-02-15T19:48:03.726Z,66.40
2019-02-15T19:50:33.813Z,66.90
2019-02-15T19:53:04.113Z,66.80
2019-02-15T19:55:34.520Z,66.70
2019-02-15T19:58:04.659Z,66.90
2019-02-15T20:00:35.577Z,67.00
2019-02-15T20:03:06.077Z,67.10
2019-02-15T20:05:36.488Z,67.10
2019-02-15T20:08:06.749Z,67.00
2019-02-15T20:10:36.923Z,67.20
2019-02-15T20:13:07.051Z,67.70
2019-02-15T20:15:37.231Z,67.70
2019-02-15T20:18:07.414Z,67.70
2019-02-15T20:20:37.438Z,67.70
2019-02-15T20:23:07.762Z,67.80
2019-02-15T20:25:37.784Z,67.70
2019-02-15T20:28:14.064Z,67.70
2019-02-15T20:30:39.626Z,67.70
2019-02-15T20:33:09.834Z,67.70
2019-02-15T20:35:40.038Z,67.60
2019-02-15T20:38:10.312Z,67.70
2019-02-15T20:40:40.386Z,67.90
2019-02-15T20:43:10.672Z,67.90
2019-02-15T20:45:42.283Z,68.00
2019-02-15T20:48:13.181Z,68.10
2019-02-15T20:50:43.441Z,68.00
2019-02-15T20:53:13.412Z,67.90
2019-02-15T20:55:43.395Z,68.10
2019-02-15T20:58:13.579Z,68.70
2019-02-15T21:00:43.744Z,67.90
2019-02-15T21:03:13.804Z,68.20
2019-02-15T21:05:43.892Z,68.30
2019-02-15T21:08:13.930Z,68.30
2019-02-15T21:10:43.971Z,68.30
2019-02-15T21:13:20.141Z,68.30
2019-02-15T21:15:45.779Z,68.30
2019-02-15T21:18:16.005Z,68.20
2019-02-15T21:20:46.087Z,68.40
2019-02-15T21:23:16.135Z,68.30
2019-02-15T21:25:46.085Z,68.40
2019-02-15T21:28:16.291Z,68.50
2019-02-15T21:30:47.973Z,68.50
2019-02-15T21:33:17.878Z,68.40
2019-02-15T21:35:47.508Z,68.30
2019-02-15T21:38:17.284Z,68.30
2019-02-15T21:40:46.980Z,68.40
2019-02-15T21:43:16.636Z,68.30
2019-02-15T21:45:46.159Z,68.20
2019-02-15T21:48:15.741Z,68.80
2019-02-15T21:50:45.139Z,68.30
2019-02-15T21:53:14.552Z,68.30
2019-02-15T21:55:44.047Z,68.20
2019-02-15T21:58:13.417Z,68.30
2019-02-15T22:00:42.888Z,68.20
2019-02-15T22:03:12.428Z,68.10
2019-02-15T22:05:41.874Z,68.00
2019-02-15T22:08:11.267Z,68.10
2019-02-15T22:10:40.788Z,68.20
2019-02-15T22:13:10.219Z,68.40
2019-02-15T22:15:39.576Z,68.60
2019-02-15T22:18:09.040Z,68.50
2019-02-15T22:20:38.494Z,68.70
2019-02-15T22:23:07.997Z,68.80
2019-02-15T22:25:37.480Z,68.70
2019-02-15T22:28:06.858Z,68.70
2019-02-15T22:30:36.300Z,68.60
2019-02-15T22:33:05.798Z,68.50
2019-02-15T22:35:35.305Z,68.50
2019-02-15T22:38:04.676Z,68.40
2019-02-15T22:40:56.805Z,68.30
2019-02-15T22:43:27.104Z,68.40
2019-02-15T22:45:56.578Z,68.30
2019-02-15T22:48:26.003Z,68.20
2019-02-15T22:50:55.378Z,68.10
2019-02-15T22:53:24.861Z,68.30
2019-02-15T22:55:54.314Z,68.30
2019-02-15T22:58:23.800Z,68.30
2019-02-15T23:01:17.574Z,68.30
2019-02-15T23:03:47.290Z,68.20
2019-02-15T23:06:16.999Z,68.10
2019-02-15T23:08:46.437Z,68.10
2019-02-15T23:11:15.848Z,68.10
2019-02-15T23:13:45.283Z,68.30
2019-02-15T23:16:14.703Z,68.30
2019-02-15T23:18:44.112Z,68.10
2019-02-15T23:21:13.626Z,68.00
2019-02-15T23:23:43.104Z,68.10
2019-02-15T23:26:12.460Z,67.90
2019-02-15T23:28:41.848Z,67.80
2019-02-15T23:31:11.206Z,67.70
2019-02-15T23:33:40.601Z,67.80
2019-02-15T23:36:10.011Z,68.00
2019-02-15T23:38:39.397Z,68.20
2019-02-15T23:41:08.775Z,68.20
2019-02-15T23:43:38.335Z,68.20
2019-02-15T23:46:07.790Z,68.10
2019-02-15T23:48:37.287Z,68.20
2019-02-15T23:51:06.744Z,68.20
2019-02-15T23:53:36.192Z,68.10
2019-02-15T23:56:06.027Z,68.10
2019-02-15T23:58:35.445Z,68.00
